CMB831 Details

Departure: Norfolk Naval Station (Chambers Field) (KNGU)
Arrival: Keflavík International Airport (BIKF)
Route: SBY J79 JFK J37 ALB J563 HO PORGY 5950N N6140 EPENI ELDIS ELDIS2M
Notes: USTRANSCOM CONTRACT FLIGHT


Current Weather Information
KNGU 260959Z 02020G28KT 7SM BKN015 BKN025 OVC045 08/05 A3004 RMK AO2 PK WND 02028/0958 SLP173 T00780050
BIKF 260930Z 24021KT 9999 VCSH FEW019CB SCT035 BKN047 04/M00 Q1009